sensor_id;sensor_type;location;lat;lon;timestamp;P1;durP1;ratioP1;P2;durP2;ratioP2
14663;SDS011;7419;52.184;5.944;2023-02-10T00:03:14;11.12;;;4.56;;
14663;SDS011;7419;52.184;5.944;2023-02-10T00:03:14;8.45;;;5.07;;
14663;SDS011;7419;52.184;5.944;2023-02-10T00:03:14;7.86;;;4.33;;
14663;SDS011;7419;52.184;5.944;2023-02-10T00:03:15;6.61;;;5.09;;
14663;SDS011;7419;52.184;5.944;2023-02-10T00:04:15;9.17;;;4.92;;
14663;SDS011;7419;52.184;5.944;2023-02-10T00:05:15;7.50;;;5.24;;
14663;SDS011;7419;52.184;5.944;2023-02-10T00:06:15;8.67;;;4.82;;
14663;SDS011;7419;52.184;5.944;2023-02-10T00:07:15;8.56;;;5.11;;
14663;SDS011;7419;52.184;5.944;2023-02-10T00:08:15;9.55;;;4.51;;
14663;SDS011;7419;52.184;5.944;2023-02-10T00:09:15;8.43;;;4.12;;
14663;SDS011;7419;52.184;5.944;2023-02-10T00:10:15;5.35;;;4.64;;
14663;SDS011;7419;52.184;5.944;2023-02-10T00:11:15;8.75;;;5.32;;
14663;SDS011;7419;52.184;5.944;2023-02-10T00:12:15;9.50;;;4.71;;
14663;SDS011;7419;52.184;5.944;2023-02-10T00:13:15;8.49;;;4.68;;
14663;SDS011;7419;52.184;5.944;2023-02-10T00:14:16;13.31;;;5.05;;
14663;SDS011;7419;52.184;5.944;2023-02-10T00:15:15;11.16;;;4.26;;
14663;SDS011;7419;52.184;5.944;2023-02-10T00:16:15;7.98;;;3.98;;
14663;SDS011;7419;52.184;5.944;2023-02-10T00:17:15;9.25;;;4.79;;
14663;SDS011;7419;52.184;5.944;2023-02-10T00:18:15;9.91;;;4.71;;
14663;SDS011;7419;52.184;5.944;2023-02-10T00:19:15;9.89;;;4.15;;
14663;SDS011;7419;52.184;5.944;2023-02-10T00:20:16;7.18;;;4.34;;
14663;SDS011;7419;52.184;5.944;2023-02-10T00:21:16;5.85;;;4.57;;
14663;SDS011;7419;52.184;5.944;2023-02-10T00:22:16;6.82;;;4.07;;
14663;SDS011;7419;52.184;5.944;2023-02-10T00:23:16;7.58;;;4.55;;
14663;SDS011;7419;52.184;5.944;2023-02-10T00:24:16;8.61;;;5.30;;
14663;SDS011;7419;52.184;5.944;2023-02-10T00:25:16;8.48;;;4.34;;
14663;SDS011;7419;52.184;5.944;2023-02-10T00:26:16;7.00;;;4.59;;
14663;SDS011;7419;52.184;5.944;2023-02-10T00:27:16;7.96;;;4.55;;
14663;SDS011;7419;52.184;5.944;2023-02-10T00:28:16;5.77;;;3.89;;
14663;SDS011;7419;52.184;5.944;2023-02-10T00:29:16;10.65;;;4.61;;
14663;SDS011;7419;52.184;5.944;2023-02-10T00:30:16;9.28;;;5.21;;
14663;SDS011;7419;52.184;5.944;2023-02-10T00:31:16;8.66;;;4.74;;
14663;SDS011;7419;52.184;5.944;2023-02-10T00:32:16;7.98;;;5.37;;
14663;SDS011;7419;52.184;5.944;2023-02-10T00:33:16;6.42;;;4.09;;
14663;SDS011;7419;52.184;5.944;2023-02-10T00:34:17;10.13;;;5.18;;
14663;SDS011;7419;52.184;5.944;2023-02-10T00:35:16;8.78;;;4.91;;
14663;SDS011;7419;52.184;5.944;2023-02-10T00:36:17;6.62;;;4.16;;
14663;SDS011;7419;52.184;5.944;2023-02-10T00:37:16;7.37;;;4.07;;
14663;SDS011;7419;52.184;5.944;2023-02-10T00:38:17;8.23;;;4.76;;
14663;SDS011;7419;52.184;5.944;2023-02-10T00:39:17;6.80;;;4.22;;
14663;SDS011;7419;52.184;5.944;2023-02-10T00:40:17;7.71;;;4.46;;
14663;SDS011;7419;52.184;5.944;2023-02-10T00:41:18;10.14;;;5.43;;
14663;SDS011;7419;52.184;5.944;2023-02-10T00:42:17;7.02;;;4.37;;
14663;SDS011;7419;52.184;5.944;2023-02-10T00:43:17;7.19;;;4.75;;
14663;SDS011;7419;52.184;5.944;2023-02-10T00:44:17;9.52;;;4.83;;
14663;SDS011;7419;52.184;5.944;2023-02-10T00:45:17;5.93;;;4.11;;
14663;SDS011;7419;52.184;5.944;2023-02-10T00:46:18;6.28;;;4.39;;
14663;SDS011;7419;52.184;5.944;2023-02-10T00:47:17;7.22;;;4.80;;
14663;SDS011;7419;52.184;5.944;2023-02-10T00:48:17;9.95;;;4.36;;
14663;SDS011;7419;52.184;5.944;2023-02-10T00:49:17;6.51;;;4.06;;
14663;SDS011;7419;52.184;5.944;2023-02-10T00:50:17;5.65;;;4.45;;
14663;SDS011;7419;52.184;5.944;2023-02-10T00:51:17;8.73;;;4.33;;
14663;SDS011;7419;52.184;5.944;2023-02-10T00:52:17;6.21;;;3.77;;
14663;SDS011;7419;52.184;5.944;2023-02-10T00:53:17;10.76;;;4.61;;
14663;SDS011;7419;52.184;5.944;2023-02-10T00:54:18;8.29;;;4.60;;
14663;SDS011;7419;52.184;5.944;2023-02-10T00:55:18;5.74;;;4.22;;
14663;SDS011;7419;52.184;5.944;2023-02-10T00:56:18;7.71;;;4.30;;
14663;SDS011;7419;52.184;5.944;2023-02-10T00:57:18;5.27;;;3.96;;
14663;SDS011;7419;52.184;5.944;2023-02-10T00:58:18;6.86;;;4.53;;
14663;SDS011;7419;52.184;5.944;2023-02-10T00:59:18;5.67;;;4.53;;
14663;SDS011;7419;52.184;5.944;2023-02-10T01:00:18;10.03;;;4.31;;
14663;SDS011;7419;52.184;5.944;2023-02-10T01:01:18;9.21;;;4.38;;
14663;SDS011;7419;52.184;5.944;2023-02-10T01:02:18;10.37;;;4.08;;
14663;SDS011;7419;52.184;5.944;2023-02-10T01:03:18;5.89;;;3.77;;
14663;SDS011;7419;52.184;5.944;2023-02-10T01:04:18;8.51;;;3.83;;
14663;SDS011;7419;52.184;5.944;2023-02-10T01:05:18;6.82;;;4.37;;
14663;SDS011;7419;52.184;5.944;2023-02-10T01:06:18;5.00;;;4.01;;
14663;SDS011;7419;52.184;5.944;2023-02-10T01:07:18;7.96;;;4.30;;
14663;SDS011;7419;52.184;5.944;2023-02-10T01:08:19;8.14;;;4.15;;
14663;SDS011;7419;52.184;5.944;2023-02-10T01:09:19;7.10;;;4.15;;
14663;SDS011;7419;52.184;5.944;2023-02-10T01:10:19;6.44;;;4.33;;
14663;SDS011;7419;52.184;5.944;2023-02-10T01:11:19;7.59;;;4.36;;
14663;SDS011;7419;52.184;5.944;2023-02-10T01:12:19;6.28;;;4.00;;
14663;SDS011;7419;52.184;5.944;2023-02-10T01:13:19;4.53;;;3.37;;
14663;SDS011;7419;52.184;5.944;2023-02-10T01:14:19;6.36;;;3.87;;
14663;SDS011;7419;52.184;5.944;2023-02-10T01:15:19;3.82;;;3.25;;
14663;SDS011;7419;52.184;5.944;2023-02-10T01:16:19;7.02;;;4.14;;
14663;SDS011;7419;52.184;5.944;2023-02-10T01:17:19;6.57;;;3.19;;
14663;SDS011;7419;52.184;5.944;2023-02-10T01:18:19;5.50;;;3.93;;
14663;SDS011;7419;52.184;5.944;2023-02-10T01:19:19;7.48;;;4.32;;
14663;SDS011;7419;52.184;5.944;2023-02-10T01:20:19;8.25;;;4.60;;
14663;SDS011;7419;52.184;5.944;2023-02-10T01:21:19;6.61;;;4.25;;
14663;SDS011;7419;52.184;5.944;2023-02-10T01:22:19;5.91;;;4.06;;
14663;SDS011;7419;52.184;5.944;2023-02-10T01:23:19;6.99;;;3.82;;
14663;SDS011;7419;52.184;5.944;2023-02-10T01:24:19;6.22;;;3.92;;
14663;SDS011;7419;52.184;5.944;2023-02-10T01:25:19;8.51;;;4.28;;
14663;SDS011;7419;52.184;5.944;2023-02-10T01:26:20;8.88;;;3.75;;
14663;SDS011;7419;52.184;5.944;2023-02-10T01:27:20;12.24;;;4.04;;
14663;SDS011;7419;52.184;5.944;2023-02-10T01:28:20;6.61;;;4.10;;
14663;SDS011;7419;52.184;5.944;2023-02-10T01:29:20;6.92;;;4.33;;
14663;SDS011;7419;52.184;5.944;2023-02-10T01:30:20;7.37;;;3.89;;
14663;SDS011;7419;52.184;5.944;2023-02-10T01:31:20;9.49;;;3.62;;
14663;SDS011;7419;52.184;5.944;2023-02-10T01:32:20;8.32;;;4.09;;
14663;SDS011;7419;52.184;5.944;2023-02-10T01:33:20;7.67;;;4.84;;
14663;SDS011;7419;52.184;5.944;2023-02-10T01:34:20;5.96;;;3.63;;
14663;SDS011;7419;52.184;5.944;2023-02-10T01:35:20;5.24;;;3.64;;
14663;SDS011;7419;52.184;5.944;2023-02-10T01:36:21;9.91;;;4.00;;
14663;SDS011;7419;52.184;5.944;2023-02-10T01:37:20;9.36;;;4.00;;
14663;SDS011;7419;52.184;5.944;2023-02-10T01:38:20;7.83;;;4.35;;
14663;SDS011;7419;52.184;5.944;2023-02-10T01:39:20;4.14;;;3.54;;
14663;SDS011;7419;52.184;5.944;2023-02-10T01:40:20;6.76;;;4.06;;
14663;SDS011;7419;52.184;5.944;2023-02-10T01:41:21;9.96;;;4.05;;
14663;SDS011;7419;52.184;5.944;2023-02-10T01:42:20;4.56;;;3.72;;
14663;SDS011;7419;52.184;5.944;2023-02-10T01:43:21;6.70;;;3.87;;
14663;SDS011;7419;52.184;5.944;2023-02-10T01:45:22;7.37;;;3.66;;
14663;SDS011;7419;52.184;5.944;2023-02-10T01:46:21;6.48;;;4.21;;
14663;SDS011;7419;52.184;5.944;2023-02-10T01:47:21;7.71;;;3.89;;
14663;SDS011;7419;52.184;5.944;2023-02-10T01:48:21;8.79;;;3.42;;
14663;SDS011;7419;52.184;5.944;2023-02-10T01:49:22;4.95;;;3.62;;
14663;SDS011;7419;52.184;5.944;2023-02-10T01:50:22;6.49;;;3.58;;
14663;SDS011;7419;52.184;5.944;2023-02-10T01:51:25;4.58;;;3.23;;
14663;SDS011;7419;52.184;5.944;2023-02-10T01:52:22;5.64;;;3.62;;
14663;SDS011;7419;52.184;5.944;2023-02-10T01:53:21;5.25;;;3.84;;
14663;SDS011;7419;52.184;5.944;2023-02-10T01:54:22;6.49;;;3.46;;
14663;SDS011;7419;52.184;5.944;2023-02-10T01:55:22;5.02;;;3.60;;
14663;SDS011;7419;52.184;5.944;2023-02-10T01:56:21;5.04;;;3.33;;
14663;SDS011;7419;52.184;5.944;2023-02-10T01:57:21;4.70;;;3.94;;
14663;SDS011;7419;52.184;5.944;2023-02-10T01:58:23;4.58;;;3.02;;
14663;SDS011;7419;52.184;5.944;2023-02-10T01:59:21;4.71;;;3.36;;
14663;SDS011;7419;52.184;5.944;2023-02-10T02:00:22;4.88;;;3.39;;
14663;SDS011;7419;52.184;5.944;2023-02-10T02:01:22;11.37;;;3.67;;
14663;SDS011;7419;52.184;5.944;2023-02-10T02:02:22;5.07;;;3.39;;
14663;SDS011;7419;52.184;5.944;2023-02-10T02:03:22;3.74;;;3.11;;
14663;SDS011;7419;52.184;5.944;2023-02-10T02:04:22;7.68;;;3.89;;
14663;SDS011;7419;52.184;5.944;2023-02-10T02:05:27;7.37;;;3.88;;
14663;SDS011;7419;52.184;5.944;2023-02-10T02:06:22;8.18;;;4.24;;
14663;SDS011;7419;52.184;5.944;2023-02-10T02:07:22;6.94;;;4.29;;
14663;SDS011;7419;52.184;5.944;2023-02-10T02:08:23;4.46;;;3.13;;
14663;SDS011;7419;52.184;5.944;2023-02-10T02:09:22;5.11;;;3.77;;
14663;SDS011;7419;52.184;5.944;2023-02-10T02:10:22;5.60;;;3.62;;
14663;SDS011;7419;52.184;5.944;2023-02-10T02:11:23;6.99;;;3.39;;
14663;SDS011;7419;52.184;5.944;2023-02-10T02:12:24;8.61;;;3.76;;
14663;SDS011;7419;52.184;5.944;2023-02-10T02:13:25;7.07;;;3.87;;
14663;SDS011;7419;52.184;5.944;2023-02-10T02:14:26;4.05;;;3.26;;
14663;SDS011;7419;52.184;5.944;2023-02-10T02:15:24;7.72;;;3.74;;
14663;SDS011;7419;52.184;5.944;2023-02-10T02:16:27;4.95;;;3.14;;
14663;SDS011;7419;52.184;5.944;2023-02-10T02:17:25;3.97;;;3.17;;
14663;SDS011;7419;52.184;5.944;2023-02-10T02:18:24;5.14;;;3.58;;
14663;SDS011;7419;52.184;5.944;2023-02-10T02:19:32;5.78;;;3.93;;
14663;SDS011;7419;52.184;5.944;2023-02-10T02:20:30;4.01;;;2.87;;
14663;SDS011;7419;52.184;5.944;2023-02-10T02:21:35;6.08;;;3.86;;
14663;SDS011;7419;52.184;5.944;2023-02-10T02:22:29;6.57;;;4.18;;
14663;SDS011;7419;52.184;5.944;2023-02-10T02:23:26;5.20;;;3.60;;
14663;SDS011;7419;52.184;5.944;2023-02-10T02:24:26;7.25;;;3.66;;
14663;SDS011;7419;52.184;5.944;2023-02-10T02:25:27;7.46;;;4.09;;
14663;SDS011;7419;52.184;5.944;2023-02-10T02:26:33;5.92;;;3.39;;
14663;SDS011;7419;52.184;5.944;2023-02-10T02:27:26;4.77;;;3.12;;
14663;SDS011;7419;52.184;5.944;2023-02-10T02:28:24;4.95;;;3.55;;
14663;SDS011;7419;52.184;5.944;2023-02-10T02:29:29;4.83;;;3.23;;
14663;SDS011;7419;52.184;5.944;2023-02-10T02:30:36;5.00;;;4.10;;
14663;SDS011;7419;52.184;5.944;2023-02-10T02:31:29;5.54;;;4.12;;
14663;SDS011;7419;52.184;5.944;2023-02-10T02:32:23;3.36;;;2.53;;
14663;SDS011;7419;52.184;5.944;2023-02-10T02:33:24;5.66;;;3.74;;
14663;SDS011;7419;52.184;5.944;2023-02-10T02:34:24;6.54;;;3.94;;
14663;SDS011;7419;52.184;5.944;2023-02-10T02:35:24;5.77;;;3.63;;
14663;SDS011;7419;52.184;5.944;2023-02-10T02:36:25;6.94;;;3.73;;
14663;SDS011;7419;52.184;5.944;2023-02-10T02:37:24;8.12;;;4.14;;
14663;SDS011;7419;52.184;5.944;2023-02-10T02:38:23;6.33;;;3.13;;
14663;SDS011;7419;52.184;5.944;2023-02-10T02:39:23;6.92;;;3.97;;
14663;SDS011;7419;52.184;5.944;2023-02-10T02:40:24;6.71;;;3.85;;
14663;SDS011;7419;52.184;5.944;2023-02-10T02:41:24;5.55;;;3.34;;
14663;SDS011;7419;52.184;5.944;2023-02-10T02:42:25;3.94;;;3.20;;
14663;SDS011;7419;52.184;5.944;2023-02-10T02:43:24;4.95;;;3.50;;
14663;SDS011;7419;52.184;5.944;2023-02-10T02:44:24;4.51;;;3.21;;
14663;SDS011;7419;52.184;5.944;2023-02-10T02:45:25;5.70;;;3.08;;
14663;SDS011;7419;52.184;5.944;2023-02-10T02:46:26;3.85;;;2.76;;
14663;SDS011;7419;52.184;5.944;2023-02-10T02:47:27;3.74;;;3.14;;
14663;SDS011;7419;52.184;5.944;2023-02-10T02:48:28;4.53;;;3.48;;
14663;SDS011;7419;52.184;5.944;2023-02-10T02:49:26;5.89;;;3.27;;
14663;SDS011;7419;52.184;5.944;2023-02-10T02:50:26;5.60;;;3.91;;
14663;SDS011;7419;52.184;5.944;2023-02-10T02:51:28;4.47;;;3.75;;
14663;SDS011;7419;52.184;5.944;2023-02-10T02:52:26;5.52;;;3.62;;
14663;SDS011;7419;52.184;5.944;2023-02-10T02:53:27;7.86;;;3.68;;
14663;SDS011;7419;52.184;5.944;2023-02-10T02:54:25;4.06;;;3.53;;
14663;SDS011;7419;52.184;5.944;2023-02-10T02:55:25;5.63;;;3.06;;
14663;SDS011;7419;52.184;5.944;2023-02-10T02:56:26;4.64;;;3.18;;
14663;SDS011;7419;52.184;5.944;2023-02-10T02:57:26;4.78;;;3.37;;
14663;SDS011;7419;52.184;5.944;2023-02-10T02:58:26;4.99;;;3.54;;
14663;SDS011;7419;52.184;5.944;2023-02-10T02:59:26;4.12;;;3.37;;
14663;SDS011;7419;52.184;5.944;2023-02-10T03:00:26;4.78;;;3.70;;
14663;SDS011;7419;52.184;5.944;2023-02-10T03:01:25;4.45;;;2.85;;
14663;SDS011;7419;52.184;5.944;2023-02-10T03:02:25;4.22;;;3.29;;
14663;SDS011;7419;52.184;5.944;2023-02-10T03:03:25;5.98;;;3.17;;
14663;SDS011;7419;52.184;5.944;2023-02-10T03:04:26;6.24;;;3.45;;
14663;SDS011;7419;52.184;5.944;2023-02-10T03:05:27;6.25;;;3.15;;
14663;SDS011;7419;52.184;5.944;2023-02-10T03:06:25;4.31;;;3.42;;
14663;SDS011;7419;52.184;5.944;2023-02-10T03:07:25;6.13;;;3.65;;
14663;SDS011;7419;52.184;5.944;2023-02-10T03:08:25;6.66;;;3.37;;
14663;SDS011;7419;52.184;5.944;2023-02-10T03:09:25;4.78;;;3.21;;
14663;SDS011;7419;52.184;5.944;2023-02-10T03:10:25;3.26;;;2.62;;
14663;SDS011;7419;52.184;5.944;2023-02-10T03:11:25;3.80;;;2.90;;
14663;SDS011;7419;52.184;5.944;2023-02-10T03:12:25;4.22;;;3.12;;
14663;SDS011;7419;52.184;5.944;2023-02-10T03:13:25;7.62;;;3.18;;
14663;SDS011;7419;52.184;5.944;2023-02-10T03:14:25;6.41;;;2.95;;
14663;SDS011;7419;52.184;5.944;2023-02-10T03:15:25;4.57;;;2.89;;
14663;SDS011;7419;52.184;5.944;2023-02-10T03:16:25;5.56;;;2.73;;
14663;SDS011;7419;52.184;5.944;2023-02-10T03:17:25;9.41;;;3.46;;
14663;SDS011;7419;52.184;5.944;2023-02-10T03:18:26;5.40;;;3.30;;
14663;SDS011;7419;52.184;5.944;2023-02-10T03:19:25;3.40;;;3.04;;
14663;SDS011;7419;52.184;5.944;2023-02-10T03:20:25;2.85;;;2.48;;
14663;SDS011;7419;52.184;5.944;2023-02-10T03:21:26;7.54;;;3.50;;
14663;SDS011;7419;52.184;5.944;2023-02-10T03:22:26;4.04;;;3.21;;
14663;SDS011;7419;52.184;5.944;2023-02-10T03:23:26;2.70;;;2.40;;
14663;SDS011;7419;52.184;5.944;2023-02-10T03:24:26;4.58;;;3.09;;
14663;SDS011;7419;52.184;5.944;2023-02-10T03:25:26;4.99;;;3.51;;
14663;SDS011;7419;52.184;5.944;2023-02-10T03:26:26;4.45;;;3.19;;
14663;SDS011;7419;52.184;5.944;2023-02-10T03:27:26;3.25;;;2.23;;
14663;SDS011;7419;52.184;5.944;2023-02-10T03:28:26;4.21;;;3.25;;
14663;SDS011;7419;52.184;5.944;2023-02-10T03:29:26;3.22;;;2.71;;
14663;SDS011;7419;52.184;5.944;2023-02-10T03:30:26;3.73;;;3.34;;
14663;SDS011;7419;52.184;5.944;2023-02-10T03:31:26;4.30;;;3.30;;
14663;SDS011;7419;52.184;5.944;2023-02-10T03:32:26;4.01;;;2.89;;
14663;SDS011;7419;52.184;5.944;2023-02-10T03:33:26;8.37;;;3.62;;
14663;SDS011;7419;52.184;5.944;2023-02-10T03:34:26;4.49;;;2.72;;
14663;SDS011;7419;52.184;5.944;2023-02-10T03:35:26;5.33;;;3.42;;
14663;SDS011;7419;52.184;5.944;2023-02-10T03:36:26;5.53;;;3.20;;
14663;SDS011;7419;52.184;5.944;2023-02-10T03:37:26;4.26;;;3.42;;
14663;SDS011;7419;52.184;5.944;2023-02-10T03:38:27;5.32;;;2.62;;
14663;SDS011;7419;52.184;5.944;2023-02-10T03:39:26;5.95;;;2.74;;
14663;SDS011;7419;52.184;5.944;2023-02-10T03:40:26;7.53;;;3.50;;
14663;SDS011;7419;52.184;5.944;2023-02-10T03:41:27;5.60;;;3.22;;
14663;SDS011;7419;52.184;5.944;2023-02-10T03:42:27;3.79;;;3.08;;
14663;SDS011;7419;52.184;5.944;2023-02-10T03:43:27;4.50;;;3.06;;
14663;SDS011;7419;52.184;5.944;2023-02-10T03:44:27;7.62;;;4.05;;
14663;SDS011;7419;52.184;5.944;2023-02-10T03:45:27;7.55;;;3.72;;
14663;SDS011;7419;52.184;5.944;2023-02-10T03:46:27;4.17;;;2.98;;
14663;SDS011;7419;52.184;5.944;2023-02-10T03:47:27;6.21;;;3.26;;
14663;SDS011;7419;52.184;5.944;2023-02-10T03:48:27;6.24;;;3.96;;
14663;SDS011;7419;52.184;5.944;2023-02-10T03:49:27;5.13;;;3.29;;
14663;SDS011;7419;52.184;5.944;2023-02-10T03:50:27;6.17;;;3.37;;
14663;SDS011;7419;52.184;5.944;2023-02-10T03:51:27;5.41;;;3.56;;
14663;SDS011;7419;52.184;5.944;2023-02-10T03:52:27;5.14;;;3.87;;
14663;SDS011;7419;52.184;5.944;2023-02-10T03:53:27;8.92;;;4.64;;
14663;SDS011;7419;52.184;5.944;2023-02-10T03:54:27;5.76;;;4.39;;
14663;SDS011;7419;52.184;5.944;2023-02-10T03:55:28;5.68;;;3.93;;
14663;SDS011;7419;52.184;5.944;2023-02-10T03:56:27;7.05;;;3.68;;
14663;SDS011;7419;52.184;5.944;2023-02-10T03:57:27;5.73;;;3.54;;
14663;SDS011;7419;52.184;5.944;2023-02-10T03:58:27;6.00;;;3.88;;
14663;SDS011;7419;52.184;5.944;2023-02-10T03:59:27;6.83;;;3.93;;
14663;SDS011;7419;52.184;5.944;2023-02-10T04:00:28;7.73;;;3.50;;
14663;SDS011;7419;52.184;5.944;2023-02-10T04:01:27;6.92;;;3.65;;
14663;SDS011;7419;52.184;5.944;2023-02-10T04:02:28;6.71;;;3.95;;
14663;SDS011;7419;52.184;5.944;2023-02-10T04:03:28;6.29;;;4.43;;
14663;SDS011;7419;52.184;5.944;2023-02-10T04:04:28;9.17;;;5.15;;
14663;SDS011;7419;52.184;5.944;2023-02-10T04:05:28;5.64;;;3.96;;
14663;SDS011;7419;52.184;5.944;2023-02-10T04:06:28;6.16;;;4.00;;
14663;SDS011;7419;52.184;5.944;2023-02-10T04:07:28;6.90;;;4.74;;
14663;SDS011;7419;52.184;5.944;2023-02-10T04:08:28;9.13;;;4.38;;
14663;SDS011;7419;52.184;5.944;2023-02-10T04:09:28;6.80;;;4.29;;
14663;SDS011;7419;52.184;5.944;2023-02-10T04:10:28;5.67;;;4.29;;
14663;SDS011;7419;52.184;5.944;2023-02-10T04:11:28;8.66;;;4.09;;
14663;SDS011;7419;52.184;5.944;2023-02-10T04:12:28;7.73;;;4.11;;
14663;SDS011;7419;52.184;5.944;2023-02-10T04:13:28;6.04;;;4.33;;
14663;SDS011;7419;52.184;5.944;2023-02-10T04:14:28;7.55;;;4.61;;
14663;SDS011;7419;52.184;5.944;2023-02-10T04:15:29;7.71;;;4.26;;
14663;SDS011;7419;52.184;5.944;2023-02-10T04:16:28;5.78;;;4.09;;
14663;SDS011;7419;52.184;5.944;2023-02-10T04:17:28;6.95;;;4.72;;
14663;SDS011;7419;52.184;5.944;2023-02-10T04:18:28;7.63;;;4.92;;
14663;SDS011;7419;52.184;5.944;2023-02-10T04:19:28;7.68;;;5.09;;
14663;SDS011;7419;52.184;5.944;2023-02-10T04:20:28;9.96;;;5.05;;
14663;SDS011;7419;52.184;5.944;2023-02-10T04:21:29;5.89;;;4.12;;
14663;SDS011;7419;52.184;5.944;2023-02-10T04:22:29;6.64;;;4.56;;
14663;SDS011;7419;52.184;5.944;2023-02-10T04:23:29;6.80;;;4.01;;
14663;SDS011;7419;52.184;5.944;2023-02-10T04:24:29;8.00;;;4.55;;
14663;SDS011;7419;52.184;5.944;2023-02-10T04:25:29;9.98;;;5.11;;
14663;SDS011;7419;52.184;5.944;2023-02-10T04:26:29;8.87;;;4.80;;
14663;SDS011;7419;52.184;5.944;2023-02-10T04:27:29;9.00;;;4.88;;
14663;SDS011;7419;52.184;5.944;2023-02-10T04:28:29;9.51;;;4.64;;
14663;SDS011;7419;52.184;5.944;2023-02-10T04:29:29;5.74;;;4.48;;
14663;SDS011;7419;52.184;5.944;2023-02-10T04:30:29;6.77;;;4.30;;
14663;SDS011;7419;52.184;5.944;2023-02-10T04:31:29;6.65;;;4.11;;
14663;SDS011;7419;52.184;5.944;2023-02-10T04:32:29;6.57;;;4.30;;
14663;SDS011;7419;52.184;5.944;2023-02-10T04:33:29;5.15;;;4.56;;
14663;SDS011;7419;52.184;5.944;2023-02-10T04:34:29;7.83;;;4.50;;
14663;SDS011;7419;52.184;5.944;2023-02-10T04:35:29;5.91;;;4.74;;
14663;SDS011;7419;52.184;5.944;2023-02-10T04:36:29;9.64;;;5.37;;
14663;SDS011;7419;52.184;5.944;2023-02-10T04:37:29;7.67;;;4.57;;
14663;SDS011;7419;52.184;5.944;2023-02-10T04:38:30;5.81;;;4.19;;
14663;SDS011;7419;52.184;5.944;2023-02-10T04:39:29;8.72;;;4.30;;
14663;SDS011;7419;52.184;5.944;2023-02-10T04:40:29;8.30;;;5.24;;
14663;SDS011;7419;52.184;5.944;2023-02-10T04:41:30;6.79;;;5.23;;
14663;SDS011;7419;52.184;5.944;2023-02-10T04:42:30;7.76;;;5.38;;
14663;SDS011;7419;52.184;5.944;2023-02-10T04:43:30;6.55;;;4.98;;
14663;SDS011;7419;52.184;5.944;2023-02-10T04:44:30;6.27;;;4.82;;
14663;SDS011;7419;52.184;5.944;2023-02-10T04:45:30;9.51;;;4.73;;
14663;SDS011;7419;52.184;5.944;2023-02-10T04:46:30;8.76;;;5.07;;
14663;SDS011;7419;52.184;5.944;2023-02-10T04:47:30;8.77;;;5.33;;
14663;SDS011;7419;52.184;5.944;2023-02-10T04:48:30;7.42;;;4.57;;
14663;SDS011;7419;52.184;5.944;2023-02-10T04:49:30;8.55;;;4.11;;
14663;SDS011;7419;52.184;5.944;2023-02-10T04:50:30;9.43;;;5.46;;
14663;SDS011;7419;52.184;5.944;2023-02-10T04:51:30;7.51;;;4.97;;
14663;SDS011;7419;52.184;5.944;2023-02-10T04:52:30;9.65;;;4.93;;
14663;SDS011;7419;52.184;5.944;2023-02-10T04:53:30;9.09;;;4.70;;
14663;SDS011;7419;52.184;5.944;2023-02-10T04:54:30;8.13;;;5.46;;
14663;SDS011;7419;52.184;5.944;2023-02-10T04:55:30;8.36;;;5.05;;
14663;SDS011;7419;52.184;5.944;2023-02-10T04:56:30;9.51;;;5.68;;
14663;SDS011;7419;52.184;5.944;2023-02-10T04:57:30;7.44;;;4.95;;
14663;SDS011;7419;52.184;5.944;2023-02-10T04:58:30;7.52;;;4.92;;
14663;SDS011;7419;52.184;5.944;2023-02-10T04:59:31;8.15;;;5.43;;
14663;SDS011;7419;52.184;5.944;2023-02-10T05:00:31;6.72;;;4.78;;
14663;SDS011;7419;52.184;5.944;2023-02-10T05:01:31;6.80;;;4.45;;
14663;SDS011;7419;52.184;5.944;2023-02-10T05:02:31;7.85;;;4.70;;
14663;SDS011;7419;52.184;5.944;2023-02-10T05:03:31;8.55;;;4.35;;
14663;SDS011;7419;52.184;5.944;2023-02-10T05:04:31;8.24;;;4.82;;
14663;SDS011;7419;52.184;5.944;2023-02-10T05:05:31;8.67;;;4.21;;
14663;SDS011;7419;52.184;5.944;2023-02-10T05:06:31;7.90;;;5.70;;
14663;SDS011;7419;52.184;5.944;2023-02-10T05:07:31;8.27;;;4.88;;
14663;SDS011;7419;52.184;5.944;2023-02-10T05:08:31;8.38;;;4.48;;
14663;SDS011;7419;52.184;5.944;2023-02-10T05:09:31;9.09;;;5.53;;
14663;SDS011;7419;52.184;5.944;2023-02-10T05:10:31;9.18;;;4.73;;
14663;SDS011;7419;52.184;5.944;2023-02-10T05:11:31;9.49;;;5.39;;
14663;SDS011;7419;52.184;5.944;2023-02-10T05:12:31;13.41;;;5.85;;
14663;SDS011;7419;52.184;5.944;2023-02-10T05:13:31;8.49;;;4.71;;
14663;SDS011;7419;52.184;5.944;2023-02-10T05:14:31;9.34;;;5.45;;
14663;SDS011;7419;52.184;5.944;2023-02-10T05:15:32;10.27;;;5.71;;
14663;SDS011;7419;52.184;5.944;2023-02-10T05:16:32;9.45;;;5.49;;
14663;SDS011;7419;52.184;5.944;2023-02-10T05:17:32;8.24;;;4.83;;
14663;SDS011;7419;52.184;5.944;2023-02-10T05:18:32;9.86;;;5.27;;
14663;SDS011;7419;52.184;5.944;2023-02-10T05:19:32;12.03;;;5.02;;
14663;SDS011;7419;52.184;5.944;2023-02-10T05:20:32;7.67;;;4.54;;
14663;SDS011;7419;52.184;5.944;2023-02-10T05:21:32;9.03;;;4.99;;
14663;SDS011;7419;52.184;5.944;2023-02-10T05:22:34;9.49;;;5.09;;
14663;SDS011;7419;52.184;5.944;2023-02-10T05:23:32;9.32;;;5.73;;
14663;SDS011;7419;52.184;5.944;2023-02-10T05:24:32;10.00;;;5.46;;
14663;SDS011;7419;52.184;5.944;2023-02-10T05:25:32;8.38;;;5.74;;
14663;SDS011;7419;52.184;5.944;2023-02-10T05:26:32;8.33;;;5.56;;
14663;SDS011;7419;52.184;5.944;2023-02-10T05:27:32;6.77;;;4.89;;
14663;SDS011;7419;52.184;5.944;2023-02-10T05:28:32;9.24;;;5.49;;
14663;SDS011;7419;52.184;5.944;2023-02-10T05:29:32;8.97;;;5.13;;
14663;SDS011;7419;52.184;5.944;2023-02-10T05:30:32;12.90;;;5.77;;
14663;SDS011;7419;52.184;5.944;2023-02-10T05:31:32;7.18;;;4.92;;
14663;SDS011;7419;52.184;5.944;2023-02-10T05:32:33;7.51;;;5.12;;
14663;SDS011;7419;52.184;5.944;2023-02-10T05:33:33;9.31;;;4.99;;
14663;SDS011;7419;52.184;5.944;2023-02-10T05:34:33;8.80;;;5.93;;
14663;SDS011;7419;52.184;5.944;2023-02-10T05:35:33;7.95;;;4.28;;
14663;SDS011;7419;52.184;5.944;2023-02-10T05:36:33;7.59;;;4.06;;
14663;SDS011;7419;52.184;5.944;2023-02-10T05:37:33;11.95;;;4.87;;
14663;SDS011;7419;52.184;5.944;2023-02-10T05:38:33;10.62;;;5.32;;
14663;SDS011;7419;52.184;5.944;2023-02-10T05:39:33;9.62;;;5.04;;
14663;SDS011;7419;52.184;5.944;2023-02-10T05:40:33;8.19;;;4.89;;
14663;SDS011;7419;52.184;5.944;2023-02-10T05:41:33;7.39;;;4.36;;
14663;SDS011;7419;52.184;5.944;2023-02-10T05:42:33;7.45;;;5.22;;
14663;SDS011;7419;52.184;5.944;2023-02-10T05:43:33;13.12;;;6.11;;
14663;SDS011;7419;52.184;5.944;2023-02-10T05:44:33;8.08;;;4.65;;
14663;SDS011;7419;52.184;5.944;2023-02-10T05:45:33;6.97;;;5.00;;
14663;SDS011;7419;52.184;5.944;2023-02-10T05:46:33;9.54;;;5.71;;
14663;SDS011;7419;52.184;5.944;2023-02-10T05:47:33;8.50;;;5.65;;
14663;SDS011;7419;52.184;5.944;2023-02-10T05:48:33;8.58;;;4.71;;
14663;SDS011;7419;52.184;5.944;2023-02-10T05:49:34;6.90;;;4.98;;
14663;SDS011;7419;52.184;5.944;2023-02-10T05:50:34;7.60;;;5.49;;
14663;SDS011;7419;52.184;5.944;2023-02-10T05:51:34;9.44;;;5.38;;
14663;SDS011;7419;52.184;5.944;2023-02-10T05:52:34;7.89;;;5.04;;
14663;SDS011;7419;52.184;5.944;2023-02-10T05:53:34;6.76;;;4.49;;
14663;SDS011;7419;52.184;5.944;2023-02-10T05:54:34;8.95;;;5.44;;
14663;SDS011;7419;52.184;5.944;2023-02-10T05:55:34;8.71;;;5.33;;
14663;SDS011;7419;52.184;5.944;2023-02-10T05:56:34;9.76;;;5.96;;
14663;SDS011;7419;52.184;5.944;2023-02-10T05:57:34;8.93;;;5.31;;
14663;SDS011;7419;52.184;5.944;2023-02-10T05:58:34;7.93;;;5.24;;
14663;SDS011;7419;52.184;5.944;2023-02-10T05:59:34;7.39;;;4.60;;
14663;SDS011;7419;52.184;5.944;2023-02-10T06:00:34;9.04;;;5.28;;
14663;SDS011;7419;52.184;5.944;2023-02-10T06:01:34;9.55;;;5.98;;
14663;SDS011;7419;52.184;5.944;2023-02-10T06:02:34;9.65;;;5.75;;
14663;SDS011;7419;52.184;5.944;2023-02-10T06:03:34;9.15;;;5.48;;
14663;SDS011;7419;52.184;5.944;2023-02-10T06:04:35;10.14;;;6.59;;
14663;SDS011;7419;52.184;5.944;2023-02-10T06:05:35;10.32;;;5.72;;
14663;SDS011;7419;52.184;5.944;2023-02-10T06:06:35;8.69;;;5.39;;
14663;SDS011;7419;52.184;5.944;2023-02-10T06:07:35;11.98;;;5.87;;